Terminal Aerodrome Forecast
Issued by NWS Mt. Holly, NJ

Home | Current Version | Previous Version | Text Only | Print | Product List | Glossary On
Versions: 1 2 3 4 5 6 7 8 9 10 11 12 13 14 15 16 17 18 19 20 21 22 23 24 25
000
FTUS41 KPHI 040310 AAA
TAFABE
TAF AMD
KABE 040310Z 0403/0424 09005KT P6SM OVC010
      TEMPO 0407/0411 2SM -RA BR OVC006
     FM041500 07005KT 3SM -SHRA BR BKN007 OVC020
     FM042000 06007KT 5SM -SHRA SCT009 OVC012=

USA.gov is the U.S. government's official web portal to all federal, state and local government web resources and services.